sensor_id;sensor_type;location;lat;lon;timestamp;pressure;altitude;pressure_sealevel;temperature;humidity
67099;BME280;54288;53.046;5.668;2022-08-21T17:15:09;101831.56;;;21.87;57.25
67099;BME280;54288;53.046;5.668;2022-08-21T17:17:37;101847.66;;;21.86;59.02
67099;BME280;54288;53.046;5.668;2022-08-21T17:20:06;101841.53;;;21.84;58.58
67099;BME280;54288;53.046;5.668;2022-08-21T17:22:32;101850.81;;;21.77;58.32
67099;BME280;54288;53.046;5.668;2022-08-21T17:24:58;64043.03;;;-140.11;100.00
67099;BME280;54288;53.046;5.668;2022-08-21T17:27:25;64043.03;;;-140.11;100.00
67099;BME280;54288;53.046;5.668;2022-08-21T17:29:53;64043.03;;;-140.11;100.00
67099;BME280;54288;53.046;5.668;2022-08-21T17:32:20;64043.03;;;-140.11;100.00
67099;BME280;54288;53.046;5.668;2022-08-21T17:34:46;64043.03;;;-140.11;100.00
67099;BME280;54288;53.046;5.668;2022-08-21T17:37:13;64043.03;;;-140.11;100.00
67099;BME280;54288;53.046;5.668;2022-08-21T17:39:39;64043.03;;;-140.11;100.00
67099;BME280;54288;53.046;5.668;2022-08-21T17:42:09;64043.03;;;-140.11;100.00
67099;BME280;54288;53.046;5.668;2022-08-21T17:44:37;64043.03;;;-140.11;100.00
67099;BME280;54288;53.046;5.668;2022-08-21T17:47:07;64043.03;;;-140.11;100.00
67099;BME280;54288;53.046;5.668;2022-08-21T17:49:34;64043.03;;;-140.11;100.00
67099;BME280;54288;53.046;5.668;2022-08-21T17:52:03;64043.03;;;-140.11;100.00
67099;BME280;54288;53.046;5.668;2022-08-21T17:54:33;64043.03;;;-140.11;100.00
67099;BME280;54288;53.046;5.668;2022-08-21T17:57:04;64043.03;;;-140.11;100.00
67099;BME280;54288;53.046;5.668;2022-08-21T17:59:31;64043.03;;;-140.11;100.00
67099;BME280;54288;53.046;5.668;2022-08-21T18:01:57;64043.03;;;-140.11;100.00
67099;BME280;54288;53.046;5.668;2022-08-21T18:04:28;64043.03;;;-140.11;100.00
67099;BME280;54288;53.046;5.668;2022-08-21T18:06:54;64043.03;;;-140.11;100.00
67099;BME280;54288;53.046;5.668;2022-08-21T18:09:20;64043.03;;;-140.11;100.00
67099;BME280;54288;53.046;5.668;2022-08-21T18:11:48;64043.03;;;-140.11;100.00
67099;BME280;54288;53.046;5.668;2022-08-21T18:14:14;64043.03;;;-140.11;100.00
67099;BME280;54288;53.046;5.668;2022-08-21T18:16:41;64043.03;;;-140.11;100.00
67099;BME280;54288;53.046;5.668;2022-08-21T18:19:09;64043.03;;;-140.11;100.00
67099;BME280;54288;53.046;5.668;2022-08-21T18:21:36;64043.03;;;-140.11;100.00
67099;BME280;54288;53.046;5.668;2022-08-21T18:24:02;64043.03;;;-140.11;100.00
67099;BME280;54288;53.046;5.668;2022-08-21T18:26:35;64043.03;;;-140.11;100.00
67099;BME280;54288;53.046;5.668;2022-08-21T18:29:05;64043.03;;;-140.11;100.00
67099;BME280;54288;53.046;5.668;2022-08-21T18:31:35;64043.03;;;-140.11;100.00
67099;BME280;54288;53.046;5.668;2022-08-21T18:34:10;64043.03;;;-140.11;100.00
67099;BME280;54288;53.046;5.668;2022-08-21T18:36:37;64043.03;;;-140.11;100.00
67099;BME280;54288;53.046;5.668;2022-08-21T18:39:04;64043.03;;;-140.11;100.00
67099;BME280;54288;53.046;5.668;2022-08-21T18:41:30;64043.03;;;-140.11;100.00
67099;BME280;54288;53.046;5.668;2022-08-21T18:43:57;64043.03;;;-140.11;100.00
67099;BME280;54288;53.046;5.668;2022-08-21T18:46:22;64043.03;;;-140.11;100.00
67099;BME280;54288;53.046;5.668;2022-08-21T18:48:50;64043.03;;;-140.11;100.00
67099;BME280;54288;53.046;5.668;2022-08-21T18:51:16;64043.03;;;-140.11;100.00
67099;BME280;54288;53.046;5.668;2022-08-21T18:53:42;64043.03;;;-140.11;100.00
67099;BME280;54288;53.046;5.668;2022-08-21T18:56:08;64043.03;;;-140.11;100.00
67099;BME280;54288;53.046;5.668;2022-08-21T18:58:33;64043.03;;;-140.11;100.00
67099;BME280;54288;53.046;5.668;2022-08-21T19:24:49;101867.53;;;18.10;75.01
67099;BME280;54288;53.046;5.668;2022-08-21T19:27:14;101878.97;;;18.12;75.21
67099;BME280;54288;53.046;5.668;2022-08-21T19:29:40;101883.06;;;17.96;75.03
67099;BME280;54288;53.046;5.668;2022-08-21T19:32:07;101852.69;;;17.80;75.86
67099;BME280;54288;53.046;5.668;2022-08-21T19:34:36;101883.13;;;17.94;75.46
67099;BME280;54288;53.046;5.668;2022-08-21T19:37:02;101889.34;;;17.93;76.87
67099;BME280;54288;53.046;5.668;2022-08-21T19:39:28;101873.09;;;17.78;75.90
67099;BME280;54288;53.046;5.668;2022-08-21T19:41:57;101873.22;;;17.73;76.36
67099;BME280;54288;53.046;5.668;2022-08-21T19:44:26;101873.31;;;17.72;76.12
67099;BME280;54288;53.046;5.668;2022-08-21T19:46:53;101883.91;;;17.72;76.43
67099;BME280;54288;53.046;5.668;2022-08-21T19:49:32;101889.41;;;17.66;77.39
67099;BME280;54288;53.046;5.668;2022-08-21T19:51:59;101872.59;;;17.67;78.08
67099;BME280;54288;53.046;5.668;2022-08-21T19:54:27;101884.03;;;17.67;78.10
67099;BME280;54288;53.046;5.668;2022-08-21T19:56:56;101887.72;;;17.63;78.31
67099;BME280;54288;53.046;5.668;2022-08-21T19:59:24;101879.09;;;17.57;77.83
67099;BME280;54288;53.046;5.668;2022-08-21T20:01:51;101886.13;;;17.58;77.22
67099;BME280;54288;53.046;5.668;2022-08-21T20:04:17;101878.28;;;17.55;77.69
67099;BME280;54288;53.046;5.668;2022-08-21T20:06:43;101874.28;;;17.42;79.14
67099;BME280;54288;53.046;5.668;2022-08-21T20:09:09;101885.84;;;17.39;79.20
67099;BME280;54288;53.046;5.668;2022-08-21T20:11:39;101878.81;;;17.37;78.45
67099;BME280;54288;53.046;5.668;2022-08-21T20:14:08;101882.50;;;17.33;78.57
67099;BME280;54288;53.046;5.668;2022-08-21T20:16:35;101891.22;;;17.38;78.82
67099;BME280;54288;53.046;5.668;2022-08-21T20:19:02;101895.81;;;17.30;79.88
67099;BME280;54288;53.046;5.668;2022-08-21T20:21:32;101891.63;;;17.23;79.17
67099;BME280;54288;53.046;5.668;2022-08-21T20:23:58;101898.03;;;17.16;80.33
67099;BME280;54288;53.046;5.668;2022-08-21T20:26:24;101905.88;;;17.19;81.51
67099;BME280;54288;53.046;5.668;2022-08-21T20:28:52;101910.16;;;17.23;81.50
67099;BME280;54288;53.046;5.668;2022-08-21T20:31:18;101913.75;;;17.22;82.21
67099;BME280;54288;53.046;5.668;2022-08-21T20:33:46;101907.72;;;17.17;81.64
67099;BME280;54288;53.046;5.668;2022-08-21T20:36:12;101915.66;;;17.17;81.82
67099;BME280;54288;53.046;5.668;2022-08-21T20:38:37;101907.97;;;17.08;82.54
67099;BME280;54288;53.046;5.668;2022-08-21T20:41:04;101902.69;;;17.08;81.40
67099;BME280;54288;53.046;5.668;2022-08-21T20:43:33;101876.81;;;16.88;81.17
67099;BME280;54288;53.046;5.668;2022-08-21T20:46:00;101886.38;;;16.94;81.41
67099;BME280;54288;53.046;5.668;2022-08-21T20:48:29;101896.97;;;16.94;82.02
67099;BME280;54288;53.046;5.668;2022-08-21T20:51:09;101897.81;;;16.94;81.38
67099;BME280;54288;53.046;5.668;2022-08-21T20:53:59;101906.47;;;16.99;81.47
67099;BME280;54288;53.046;5.668;2022-08-21T20:56:48;101907.50;;;16.95;82.64
67099;BME280;54288;53.046;5.668;2022-08-21T21:01:51;101907.31;;;17.01;82.40
67099;BME280;54288;53.046;5.668;2022-08-21T21:04:42;101908.13;;;17.03;82.42
67099;BME280;54288;53.046;5.668;2022-08-21T21:07:15;101910.19;;;16.94;82.17
67099;BME280;54288;53.046;5.668;2022-08-21T21:09:46;101905.81;;;16.93;82.42
67099;BME280;54288;53.046;5.668;2022-08-21T21:12:27;101919.78;;;16.98;81.82
67099;BME280;54288;53.046;5.668;2022-08-21T21:14:59;101913.56;;;16.99;81.84
67099;BME280;54288;53.046;5.668;2022-08-21T21:17:38;101907.53;;;16.94;81.45
67099;BME280;54288;53.046;5.668;2022-08-21T21:20:13;101921.53;;;16.97;81.60
67099;BME280;54288;53.046;5.668;2022-08-21T21:22:50;101924.19;;;16.97;81.80
67099;BME280;54288;53.046;5.668;2022-08-21T21:25:29;101903.91;;;16.98;81.68
67099;BME280;54288;53.046;5.668;2022-08-21T21:28:05;101904.91;;;16.94;81.69
67099;BME280;54288;53.046;5.668;2022-08-21T21:30:40;101904.72;;;17.00;81.61
67099;BME280;54288;53.046;5.668;2022-08-21T21:33:06;101907.41;;;16.98;81.87
67099;BME280;54288;53.046;5.668;2022-08-21T21:35:52;101908.28;;;16.99;81.58
67099;BME280;54288;53.046;5.668;2022-08-21T21:38:32;101904.09;;;16.92;82.09
67099;BME280;54288;53.046;5.668;2022-08-21T21:59:57;101929.44;;;16.99;82.83
67099;BME280;54288;53.046;5.668;2022-08-21T22:05:53;101930.25;;;17.01;83.36
67099;BME280;54288;53.046;5.668;2022-08-21T22:14:36;101932.31;;;16.91;83.56
67099;BME280;54288;53.046;5.668;2022-08-21T22:20:12;101923.66;;;16.85;83.92
67099;BME280;54288;53.046;5.668;2022-08-21T22:22:41;101926.38;;;16.83;83.17
67099;BME280;54288;53.046;5.668;2022-08-21T22:25:16;101927.41;;;16.78;83.46
67099;BME280;54288;53.046;5.668;2022-08-21T22:27:45;101930.84;;;16.81;84.28
67099;BME280;54288;53.046;5.668;2022-08-21T22:30:16;101938.94;;;16.75;83.89
67099;BME280;54288;53.046;5.668;2022-08-21T22:33:00;101941.75;;;16.69;84.19
67099;BME280;54288;53.046;5.668;2022-08-21T22:35:31;101941.72;;;16.71;84.32
67099;BME280;54288;53.046;5.668;2022-08-21T22:37:59;101932.13;;;16.67;84.33
67099;BME280;54288;53.046;5.668;2022-08-21T22:40:32;101941.72;;;16.71;83.09
67099;BME280;54288;53.046;5.668;2022-08-21T22:43:04;101932.25;;;16.64;83.52
67099;BME280;54288;53.046;5.668;2022-08-21T22:45:54;101922.72;;;16.57;83.36
67099;BME280;54288;53.046;5.668;2022-08-21T22:48:27;101926.28;;;16.56;83.92
67099;BME280;54288;53.046;5.668;2022-08-21T22:51:06;101939.22;;;16.66;83.73
67099;BME280;54288;53.046;5.668;2022-08-21T22:53:35;101934.97;;;16.61;85.02
67099;BME280;54288;53.046;5.668;2022-08-21T22:56:04;101934.06;;;16.60;84.83
67099;BME280;54288;53.046;5.668;2022-08-21T22:58:36;101924.53;;;16.55;84.54
67099;BME280;54288;53.046;5.668;2022-08-21T23:01:28;101940.25;;;16.61;85.27
67099;BME280;54288;53.046;5.668;2022-08-21T23:04:13;101941.97;;;16.62;85.51
67099;BME280;54288;53.046;5.668;2022-08-21T23:06:52;101937.47;;;16.65;86.08
67099;BME280;54288;53.046;5.668;2022-08-21T23:09:31;101928.84;;;16.59;85.70
67099;BME280;54288;53.046;5.668;2022-08-21T23:12:01;101924.53;;;16.55;86.59
67099;BME280;54288;53.046;5.668;2022-08-21T23:14:27;101920.25;;;16.51;86.78
67099;BME280;54288;53.046;5.668;2022-08-21T23:16:58;101929.81;;;16.56;87.00
67099;BME280;54288;53.046;5.668;2022-08-21T23:19:52;101932.41;;;16.58;85.37
67099;BME280;54288;53.046;5.668;2022-08-21T23:28:19;101931.56;;;16.56;86.28
67099;BME280;54288;53.046;5.668;2022-08-21T23:36:55;101932.81;;;16.43;86.14
67099;BME280;54288;53.046;5.668;2022-08-21T23:45:15;101925.88;;;16.39;88.02
67099;BME280;54288;53.046;5.668;2022-08-21T23:47:56;101926.75;;;16.38;87.84
67099;BME280;54288;53.046;5.668;2022-08-21T23:50:47;101907.66;;;16.27;87.55
67099;BME280;54288;53.046;5.668;2022-08-21T23:58:59;101913.22;;;16.18;87.06
